sensor_id;sensor_type;location;lat;lon;timestamp;P1;durP1;ratioP1;P2;durP2;ratioP2
55469;SDS011;41334;47.872;16.384;2023-03-01T00:01:56;7.68;;;1.17;;
55469;SDS011;41334;47.872;16.384;2023-03-01T00:04:58;9.50;;;2.80;;
55469;SDS011;41334;47.872;16.384;2023-03-01T00:08:00;3.65;;;3.03;;
55469;SDS011;41334;47.872;16.384;2023-03-01T00:11:03;3.55;;;1.92;;
55469;SDS011;41334;47.872;16.384;2023-03-01T00:14:05;2.40;;;1.70;;
55469;SDS011;41334;47.872;16.384;2023-03-01T00:17:10;6.22;;;1.92;;
55469;SDS011;41334;47.872;16.384;2023-03-01T00:20:12;0.70;;;0.70;;
55469;SDS011;41334;47.872;16.384;2023-03-01T00:23:13;3.80;;;2.28;;
55469;SDS011;41334;47.872;16.384;2023-03-01T00:26:16;2.35;;;1.33;;
55469;SDS011;41334;47.872;16.384;2023-03-01T00:29:19;3.25;;;2.05;;
55469;SDS011;41334;47.872;16.384;2023-03-01T00:32:20;1.85;;;1.30;;
55469;SDS011;41334;47.872;16.384;2023-03-01T00:35:22;2.13;;;1.45;;
55469;SDS011;41334;47.872;16.384;2023-03-01T00:38:24;0.00;;;0.00;;
55469;SDS011;41334;47.872;16.384;2023-03-01T00:41:26;6.63;;;3.90;;
55469;SDS011;41334;47.872;16.384;2023-03-01T00:44:28;2.15;;;1.92;;
55469;SDS011;41334;47.872;16.384;2023-03-01T00:47:29;0.10;;;0.10;;
55469;SDS011;41334;47.872;16.384;2023-03-01T00:50:31;4.68;;;2.50;;
55469;SDS011;41334;47.872;16.384;2023-03-01T00:53:33;2.92;;;1.65;;
55469;SDS011;41334;47.872;16.384;2023-03-01T00:56:35;2.75;;;1.95;;
55469;SDS011;41334;47.872;16.384;2023-03-01T00:59:37;3.40;;;1.58;;
55469;SDS011;41334;47.872;16.384;2023-03-01T01:02:38;3.13;;;1.60;;
55469;SDS011;41334;47.872;16.384;2023-03-01T01:05:40;4.88;;;2.28;;
55469;SDS011;41334;47.872;16.384;2023-03-01T01:08:41;3.10;;;2.00;;
55469;SDS011;41334;47.872;16.384;2023-03-01T01:11:47;4.35;;;1.73;;
55469;SDS011;41334;47.872;16.384;2023-03-01T01:14:49;4.85;;;1.33;;
55469;SDS011;41334;47.872;16.384;2023-03-01T01:17:51;2.53;;;1.90;;
55469;SDS011;41334;47.872;16.384;2023-03-01T01:20:52;5.57;;;3.83;;
55469;SDS011;41334;47.872;16.384;2023-03-01T01:23:54;3.13;;;2.63;;
55469;SDS011;41334;47.872;16.384;2023-03-01T01:26:56;3.30;;;1.90;;
55469;SDS011;41334;47.872;16.384;2023-03-01T01:29:58;10.50;;;3.15;;
55469;SDS011;41334;47.872;16.384;2023-03-01T01:32:59;2.40;;;1.60;;
55469;SDS011;41334;47.872;16.384;2023-03-01T01:36:01;2.05;;;1.60;;
55469;SDS011;41334;47.872;16.384;2023-03-01T01:39:03;5.93;;;1.85;;
55469;SDS011;41334;47.872;16.384;2023-03-01T01:42:05;2.25;;;1.50;;
55469;SDS011;41334;47.872;16.384;2023-03-01T01:48:29;0.00;;;0.00;;
55469;SDS011;41334;47.872;16.384;2023-03-01T01:51:42;0.85;;;0.82;;
55469;SDS011;41334;47.872;16.384;2023-03-01T01:54:56;5.22;;;3.10;;
55469;SDS011;41334;47.872;16.384;2023-03-01T01:58:00;1.25;;;1.08;;
55469;SDS011;41334;47.872;16.384;2023-03-01T02:01:02;7.30;;;3.63;;
55469;SDS011;41334;47.872;16.384;2023-03-01T02:04:04;3.85;;;1.30;;
55469;SDS011;41334;47.872;16.384;2023-03-01T02:07:14;0.00;;;0.00;;
55469;SDS011;41334;47.872;16.384;2023-03-01T02:10:16;4.57;;;1.95;;
55469;SDS011;41334;47.872;16.384;2023-03-01T02:13:18;1.67;;;1.30;;
55469;SDS011;41334;47.872;16.384;2023-03-01T02:16:20;3.63;;;1.60;;
55469;SDS011;41334;47.872;16.384;2023-03-01T02:19:28;5.18;;;2.58;;
55469;SDS011;41334;47.872;16.384;2023-03-01T02:22:32;7.55;;;3.53;;
55469;SDS011;41334;47.872;16.384;2023-03-01T02:28:42;1.85;;;1.63;;
55469;SDS011;41334;47.872;16.384;2023-03-01T02:31:45;2.47;;;1.55;;
55469;SDS011;41334;47.872;16.384;2023-03-01T02:34:46;5.22;;;1.90;;
55469;SDS011;41334;47.872;16.384;2023-03-01T02:37:48;6.22;;;2.33;;
55469;SDS011;41334;47.872;16.384;2023-03-01T02:40:50;4.10;;;2.03;;
55469;SDS011;41334;47.872;16.384;2023-03-01T02:43:52;2.67;;;1.77;;
55469;SDS011;41334;47.872;16.384;2023-03-01T02:46:55;9.65;;;2.72;;
55469;SDS011;41334;47.872;16.384;2023-03-01T02:49:58;4.60;;;1.63;;
55469;SDS011;41334;47.872;16.384;2023-03-01T02:53:17;3.08;;;2.10;;
55469;SDS011;41334;47.872;16.384;2023-03-01T02:56:21;2.05;;;1.83;;
55469;SDS011;41334;47.872;16.384;2023-03-01T02:59:24;2.75;;;1.70;;
55469;SDS011;41334;47.872;16.384;2023-03-01T03:02:29;1.15;;;0.85;;
55469;SDS011;41334;47.872;16.384;2023-03-01T03:05:45;2.28;;;1.77;;
55469;SDS011;41334;47.872;16.384;2023-03-01T03:08:47;5.60;;;3.47;;
55469;SDS011;41334;47.872;16.384;2023-03-01T03:11:49;4.82;;;2.08;;
55469;SDS011;41334;47.872;16.384;2023-03-01T03:14:50;1.60;;;0.70;;
55469;SDS011;41334;47.872;16.384;2023-03-01T03:17:53;4.28;;;2.42;;
55469;SDS011;41334;47.872;16.384;2023-03-01T03:20:55;8.57;;;1.73;;
55469;SDS011;41334;47.872;16.384;2023-03-01T03:23:59;1.73;;;1.42;;
55469;SDS011;41334;47.872;16.384;2023-03-01T03:27:01;6.05;;;3.92;;
55469;SDS011;41334;47.872;16.384;2023-03-01T03:30:03;6.47;;;3.58;;
55469;SDS011;41334;47.872;16.384;2023-03-01T03:33:10;2.50;;;1.55;;
55469;SDS011;41334;47.872;16.384;2023-03-01T03:36:17;4.25;;;2.05;;
55469;SDS011;41334;47.872;16.384;2023-03-01T03:39:19;4.20;;;1.88;;
55469;SDS011;41334;47.872;16.384;2023-03-01T03:42:21;0.43;;;0.40;;
55469;SDS011;41334;47.872;16.384;2023-03-01T03:45:25;7.90;;;1.85;;
55469;SDS011;41334;47.872;16.384;2023-03-01T03:48:27;7.07;;;4.10;;
55469;SDS011;41334;47.872;16.384;2023-03-01T03:51:29;12.98;;;3.40;;
55469;SDS011;41334;47.872;16.384;2023-03-01T03:54:30;10.48;;;1.95;;
55469;SDS011;41334;47.872;16.384;2023-03-01T03:57:32;0.28;;;0.17;;
55469;SDS011;41334;47.872;16.384;2023-03-01T04:00:34;0.28;;;0.17;;
55469;SDS011;41334;47.872;16.384;2023-03-01T04:03:36;0.40;;;0.40;;
55469;SDS011;41334;47.872;16.384;2023-03-01T04:06:38;1.15;;;0.88;;
55469;SDS011;41334;47.872;16.384;2023-03-01T04:09:39;3.28;;;1.65;;
55469;SDS011;41334;47.872;16.384;2023-03-01T04:12:41;3.38;;;2.47;;
55469;SDS011;41334;47.872;16.384;2023-03-01T04:15:44;2.05;;;1.48;;
55469;SDS011;41334;47.872;16.384;2023-03-01T04:18:47;3.88;;;2.50;;
55469;SDS011;41334;47.872;16.384;2023-03-01T04:21:48;8.43;;;3.50;;
55469;SDS011;41334;47.872;16.384;2023-03-01T04:24:50;4.35;;;2.30;;
55469;SDS011;41334;47.872;16.384;2023-03-01T04:27:52;6.97;;;3.05;;
55469;SDS011;41334;47.872;16.384;2023-03-01T04:30:54;7.95;;;3.38;;
55469;SDS011;41334;47.872;16.384;2023-03-01T04:33:56;8.07;;;3.22;;
55469;SDS011;41334;47.872;16.384;2023-03-01T04:36:58;7.70;;;2.80;;
55469;SDS011;41334;47.872;16.384;2023-03-01T04:40:00;6.40;;;2.17;;
55469;SDS011;41334;47.872;16.384;2023-03-01T04:43:01;10.68;;;4.13;;
55469;SDS011;41334;47.872;16.384;2023-03-01T04:46:04;3.20;;;2.45;;
55469;SDS011;41334;47.872;16.384;2023-03-01T04:49:07;4.28;;;3.00;;
55469;SDS011;41334;47.872;16.384;2023-03-01T04:52:09;2.15;;;1.80;;
55469;SDS011;41334;47.872;16.384;2023-03-01T04:55:10;4.13;;;2.88;;
55469;SDS011;41334;47.872;16.384;2023-03-01T04:58:12;9.77;;;3.45;;
55469;SDS011;41334;47.872;16.384;2023-03-01T05:01:18;9.45;;;2.03;;
55469;SDS011;41334;47.872;16.384;2023-03-01T05:04:20;3.72;;;2.15;;
55469;SDS011;41334;47.872;16.384;2023-03-01T05:07:22;2.53;;;1.85;;
55469;SDS011;41334;47.872;16.384;2023-03-01T05:10:27;7.50;;;3.55;;
55469;SDS011;41334;47.872;16.384;2023-03-01T05:13:30;7.00;;;2.67;;
55469;SDS011;41334;47.872;16.384;2023-03-01T05:16:32;5.40;;;3.13;;
55469;SDS011;41334;47.872;16.384;2023-03-01T05:19:36;5.75;;;3.22;;
55469;SDS011;41334;47.872;16.384;2023-03-01T05:22:38;5.00;;;3.13;;
55469;SDS011;41334;47.872;16.384;2023-03-01T05:25:40;4.82;;;2.28;;
55469;SDS011;41334;47.872;16.384;2023-03-01T05:28:41;7.53;;;3.90;;
55469;SDS011;41334;47.872;16.384;2023-03-01T05:31:43;8.40;;;3.90;;
55469;SDS011;41334;47.872;16.384;2023-03-01T05:34:45;8.63;;;4.03;;
55469;SDS011;41334;47.872;16.384;2023-03-01T05:37:48;7.43;;;3.95;;
55469;SDS011;41334;47.872;16.384;2023-03-01T05:40:50;7.15;;;3.97;;
55469;SDS011;41334;47.872;16.384;2023-03-01T05:43:52;5.13;;;3.35;;
55469;SDS011;41334;47.872;16.384;2023-03-01T05:46:54;3.22;;;1.65;;
55469;SDS011;41334;47.872;16.384;2023-03-01T05:49:55;6.30;;;3.92;;
55469;SDS011;41334;47.872;16.384;2023-03-01T05:52:58;6.75;;;3.85;;
55469;SDS011;41334;47.872;16.384;2023-03-01T05:56:02;5.22;;;3.13;;
55469;SDS011;41334;47.872;16.384;2023-03-01T05:59:04;0.73;;;0.70;;
55469;SDS011;41334;47.872;16.384;2023-03-01T06:02:09;8.45;;;4.15;;
55469;SDS011;41334;47.872;16.384;2023-03-01T06:05:11;8.48;;;4.65;;
55469;SDS011;41334;47.872;16.384;2023-03-01T06:08:13;7.80;;;4.68;;
55469;SDS011;41334;47.872;16.384;2023-03-01T06:11:15;2.53;;;2.10;;
55469;SDS011;41334;47.872;16.384;2023-03-01T06:14:17;21.27;;;6.63;;
55469;SDS011;41334;47.872;16.384;2023-03-01T06:17:18;0.40;;;0.40;;
55469;SDS011;41334;47.872;16.384;2023-03-01T06:20:23;4.38;;;2.03;;
55469;SDS011;41334;47.872;16.384;2023-03-01T06:23:25;5.10;;;1.75;;
55469;SDS011;41334;47.872;16.384;2023-03-01T06:26:26;3.92;;;2.13;;
55469;SDS011;41334;47.872;16.384;2023-03-01T06:29:28;13.30;;;6.47;;
55469;SDS011;41334;47.872;16.384;2023-03-01T06:32:30;9.38;;;4.47;;
55469;SDS011;41334;47.872;16.384;2023-03-01T06:35:33;6.97;;;4.88;;
55469;SDS011;41334;47.872;16.384;2023-03-01T06:38:35;8.90;;;4.75;;
55469;SDS011;41334;47.872;16.384;2023-03-01T06:41:36;10.23;;;3.15;;
55469;SDS011;41334;47.872;16.384;2023-03-01T06:44:38;3.63;;;2.38;;
55469;SDS011;41334;47.872;16.384;2023-03-01T06:47:40;8.07;;;4.75;;
55469;SDS011;41334;47.872;16.384;2023-03-01T06:50:41;6.22;;;2.75;;
55469;SDS011;41334;47.872;16.384;2023-03-01T06:53:45;10.10;;;4.20;;
55469;SDS011;41334;47.872;16.384;2023-03-01T06:56:46;12.82;;;4.15;;
55469;SDS011;41334;47.872;16.384;2023-03-01T06:59:48;3.17;;;1.98;;
55469;SDS011;41334;47.872;16.384;2023-03-01T07:02:50;3.85;;;2.70;;
55469;SDS011;41334;47.872;16.384;2023-03-01T07:05:52;7.90;;;5.30;;
55469;SDS011;41334;47.872;16.384;2023-03-01T07:08:53;12.75;;;7.03;;
55469;SDS011;41334;47.872;16.384;2023-03-01T07:11:55;5.25;;;4.00;;
55469;SDS011;41334;47.872;16.384;2023-03-01T07:14:57;8.50;;;4.95;;
55469;SDS011;41334;47.872;16.384;2023-03-01T07:17:59;9.40;;;4.07;;
55469;SDS011;41334;47.872;16.384;2023-03-01T07:21:07;11.35;;;5.82;;
55469;SDS011;41334;47.872;16.384;2023-03-01T07:24:09;10.07;;;5.10;;
55469;SDS011;41334;47.872;16.384;2023-03-01T07:27:11;7.80;;;4.70;;
55469;SDS011;41334;47.872;16.384;2023-03-01T07:30:12;20.77;;;6.03;;
55469;SDS011;41334;47.872;16.384;2023-03-01T07:33:14;5.20;;;2.58;;
55469;SDS011;41334;47.872;16.384;2023-03-01T07:36:16;4.47;;;3.22;;
55469;SDS011;41334;47.872;16.384;2023-03-01T07:39:18;1.73;;;1.48;;
55469;SDS011;41334;47.872;16.384;2023-03-01T07:42:20;12.10;;;6.68;;
55469;SDS011;41334;47.872;16.384;2023-03-01T07:45:21;7.80;;;3.72;;
55469;SDS011;41334;47.872;16.384;2023-03-01T07:48:23;11.60;;;6.35;;
55469;SDS011;41334;47.872;16.384;2023-03-01T07:51:25;17.55;;;4.35;;
55469;SDS011;41334;47.872;16.384;2023-03-01T07:54:26;7.55;;;4.63;;
55469;SDS011;41334;47.872;16.384;2023-03-01T07:57:28;12.48;;;6.28;;
55469;SDS011;41334;47.872;16.384;2023-03-01T08:00:30;12.35;;;4.70;;
55469;SDS011;41334;47.872;16.384;2023-03-01T08:03:32;11.68;;;6.45;;
55469;SDS011;41334;47.872;16.384;2023-03-01T08:06:34;8.63;;;5.80;;
55469;SDS011;41334;47.872;16.384;2023-03-01T08:09:36;12.85;;;5.70;;
55469;SDS011;41334;47.872;16.384;2023-03-01T08:12:40;11.95;;;6.40;;
55469;SDS011;41334;47.872;16.384;2023-03-01T08:15:42;16.75;;;6.57;;
55469;SDS011;41334;47.872;16.384;2023-03-01T08:18:43;8.75;;;3.45;;
55469;SDS011;41334;47.872;16.384;2023-03-01T08:21:45;16.42;;;6.32;;
55469;SDS011;41334;47.872;16.384;2023-03-01T08:24:47;1.08;;;1.02;;
55469;SDS011;41334;47.872;16.384;2023-03-01T08:27:49;9.25;;;4.68;;
55469;SDS011;41334;47.872;16.384;2023-03-01T08:30:50;0.22;;;0.17;;
55469;SDS011;41334;47.872;16.384;2023-03-01T08:33:54;17.02;;;7.88;;
55469;SDS011;41334;47.872;16.384;2023-03-01T08:36:58;20.13;;;7.68;;
55469;SDS011;41334;47.872;16.384;2023-03-01T08:40:00;11.20;;;5.00;;
55469;SDS011;41334;47.872;16.384;2023-03-01T08:43:02;17.80;;;6.03;;
55469;SDS011;41334;47.872;16.384;2023-03-01T08:46:03;12.98;;;7.10;;
55469;SDS011;41334;47.872;16.384;2023-03-01T08:49:15;16.50;;;8.30;;
55469;SDS011;41334;47.872;16.384;2023-03-01T08:52:18;10.85;;;6.57;;
55469;SDS011;41334;47.872;16.384;2023-03-01T08:55:20;23.02;;;8.52;;
55469;SDS011;41334;47.872;16.384;2023-03-01T08:58:22;16.63;;;6.15;;
55469;SDS011;41334;47.872;16.384;2023-03-01T09:01:23;18.60;;;7.55;;
55469;SDS011;41334;47.872;16.384;2023-03-01T09:04:25;18.65;;;8.45;;
55469;SDS011;41334;47.872;16.384;2023-03-01T09:07:26;9.77;;;6.05;;
55469;SDS011;41334;47.872;16.384;2023-03-01T09:10:29;12.45;;;7.88;;
55469;SDS011;41334;47.872;16.384;2023-03-01T09:13:31;2.20;;;1.33;;
55469;SDS011;41334;47.872;16.384;2023-03-01T09:16:33;1.20;;;0.47;;
55469;SDS011;41334;47.872;16.384;2023-03-01T09:19:37;10.70;;;6.10;;
55469;SDS011;41334;47.872;16.384;2023-03-01T09:22:39;11.00;;;7.68;;
55469;SDS011;41334;47.872;16.384;2023-03-01T09:25:41;24.77;;;7.95;;
55469;SDS011;41334;47.872;16.384;2023-03-01T09:28:42;10.35;;;5.57;;
55469;SDS011;41334;47.872;16.384;2023-03-01T09:31:45;10.82;;;6.00;;
55469;SDS011;41334;47.872;16.384;2023-03-01T09:34:47;16.38;;;7.50;;
55469;SDS011;41334;47.872;16.384;2023-03-01T09:38:07;26.55;;;10.02;;
55469;SDS011;41334;47.872;16.384;2023-03-01T09:41:09;20.55;;;10.43;;
55469;SDS011;41334;47.872;16.384;2023-03-01T09:44:15;16.23;;;6.90;;
55469;SDS011;41334;47.872;16.384;2023-03-01T09:47:20;19.45;;;7.72;;
55469;SDS011;41334;47.872;16.384;2023-03-01T09:50:23;17.77;;;8.90;;
55469;SDS011;41334;47.872;16.384;2023-03-01T09:53:27;22.92;;;7.63;;
55469;SDS011;41334;47.872;16.384;2023-03-01T09:56:42;24.27;;;9.73;;
55469;SDS011;41334;47.872;16.384;2023-03-01T10:00:26;13.85;;;6.82;;
55469;SDS011;41334;47.872;16.384;2023-03-01T10:06:19;17.77;;;8.82;;
55469;SDS011;41334;47.872;16.384;2023-03-01T10:09:36;23.42;;;7.70;;
55469;SDS011;41334;47.872;16.384;2023-03-01T10:12:39;16.33;;;8.43;;
55469;SDS011;41334;47.872;16.384;2023-03-01T10:15:47;22.48;;;10.02;;
55469;SDS011;41334;47.872;16.384;2023-03-01T10:18:54;15.35;;;8.68;;
55469;SDS011;41334;47.872;16.384;2023-03-01T10:21:57;28.52;;;8.95;;
55469;SDS011;41334;47.872;16.384;2023-03-01T10:25:02;12.05;;;7.07;;
55469;SDS011;41334;47.872;16.384;2023-03-01T10:28:24;12.38;;;6.45;;
55469;SDS011;41334;47.872;16.384;2023-03-01T10:31:30;15.90;;;5.65;;
55469;SDS011;41334;47.872;16.384;2023-03-01T10:34:38;19.88;;;7.65;;
55469;SDS011;41334;47.872;16.384;2023-03-01T10:37:46;9.70;;;5.90;;
55469;SDS011;41334;47.872;16.384;2023-03-01T10:41:04;19.08;;;6.63;;
55469;SDS011;41334;47.872;16.384;2023-03-01T10:44:09;13.02;;;7.72;;
55469;SDS011;41334;47.872;16.384;2023-03-01T10:47:30;22.05;;;8.00;;
55469;SDS011;41334;47.872;16.384;2023-03-01T10:50:32;20.25;;;6.80;;
55469;SDS011;41334;47.872;16.384;2023-03-01T10:53:44;15.55;;;8.93;;
55469;SDS011;41334;47.872;16.384;2023-03-01T10:56:50;11.15;;;4.43;;
55469;SDS011;41334;47.872;16.384;2023-03-01T11:00:01;18.95;;;8.00;;
55469;SDS011;41334;47.872;16.384;2023-03-01T11:03:09;13.50;;;6.07;;
55469;SDS011;41334;47.872;16.384;2023-03-01T11:09:21;12.73;;;7.18;;
55469;SDS011;41334;47.872;16.384;2023-03-01T11:12:23;19.00;;;7.15;;
55469;SDS011;41334;47.872;16.384;2023-03-01T11:15:28;12.52;;;5.93;;
55469;SDS011;41334;47.872;16.384;2023-03-01T11:18:30;14.18;;;6.63;;
55469;SDS011;41334;47.872;16.384;2023-03-01T11:24:49;12.73;;;7.03;;
55469;SDS011;41334;47.872;16.384;2023-03-01T11:28:12;12.55;;;6.20;;
55469;SDS011;41334;47.872;16.384;2023-03-01T11:31:15;16.17;;;6.15;;
55469;SDS011;41334;47.872;16.384;2023-03-01T11:34:24;14.43;;;7.95;;
55469;SDS011;41334;47.872;16.384;2023-03-01T11:37:37;16.50;;;9.07;;
55469;SDS011;41334;47.872;16.384;2023-03-01T11:40:45;13.82;;;7.85;;
55469;SDS011;41334;47.872;16.384;2023-03-01T11:50:15;15.65;;;8.25;;
55469;SDS011;41334;47.872;16.384;2023-03-01T11:56:38;18.92;;;8.85;;
55469;SDS011;41334;47.872;16.384;2023-03-01T12:05:49;18.75;;;8.52;;
55469;SDS011;41334;47.872;16.384;2023-03-01T12:25:10;11.10;;;4.93;;
55469;SDS011;41334;47.872;16.384;2023-03-01T12:28:39;11.98;;;5.78;;
55469;SDS011;41334;47.872;16.384;2023-03-01T12:44:15;11.63;;;6.35;;
55469;SDS011;41334;47.872;16.384;2023-03-01T12:47:36;8.00;;;4.30;;
55469;SDS011;41334;47.872;16.384;2023-03-01T12:50:46;10.48;;;5.22;;
55469;SDS011;41334;47.872;16.384;2023-03-01T12:53:49;14.52;;;7.60;;
55469;SDS011;41334;47.872;16.384;2023-03-01T12:56:51;15.23;;;7.50;;
55469;SDS011;41334;47.872;16.384;2023-03-01T13:00:10;20.77;;;7.78;;
55469;SDS011;41334;47.872;16.384;2023-03-01T13:10:03;11.52;;;6.60;;
55469;SDS011;41334;47.872;16.384;2023-03-01T13:16:38;11.05;;;6.63;;
55469;SDS011;41334;47.872;16.384;2023-03-01T13:19:40;14.32;;;7.68;;
55469;SDS011;41334;47.872;16.384;2023-03-01T13:23:39;17.13;;;6.93;;
55469;SDS011;41334;47.872;16.384;2023-03-01T13:26:22;21.00;;;8.70;;
55469;SDS011;41334;47.872;16.384;2023-03-01T13:29:26;15.27;;;7.43;;
55469;SDS011;41334;47.872;16.384;2023-03-01T13:32:32;16.67;;;7.22;;
55469;SDS011;41334;47.872;16.384;2023-03-01T13:35:45;15.98;;;7.18;;
55469;SDS011;41334;47.872;16.384;2023-03-01T13:38:47;8.40;;;4.30;;
55469;SDS011;41334;47.872;16.384;2023-03-01T13:41:51;14.75;;;5.82;;
55469;SDS011;41334;47.872;16.384;2023-03-01T13:44:53;2.10;;;1.30;;
55469;SDS011;41334;47.872;16.384;2023-03-01T13:47:58;12.10;;;6.03;;
55469;SDS011;41334;47.872;16.384;2023-03-01T13:51:03;10.75;;;5.50;;
55469;SDS011;41334;47.872;16.384;2023-03-01T13:54:09;13.57;;;5.97;;
55469;SDS011;41334;47.872;16.384;2023-03-01T13:57:12;14.55;;;7.03;;
55469;SDS011;41334;47.872;16.384;2023-03-01T14:00:33;14.07;;;5.95;;
55469;SDS011;41334;47.872;16.384;2023-03-01T14:03:40;12.73;;;5.95;;
55469;SDS011;41334;47.872;16.384;2023-03-01T14:06:43;13.43;;;6.20;;
55469;SDS011;41334;47.872;16.384;2023-03-01T14:09:45;10.63;;;5.90;;
55469;SDS011;41334;47.872;16.384;2023-03-01T14:12:50;11.43;;;5.20;;
55469;SDS011;41334;47.872;16.384;2023-03-01T14:16:10;14.48;;;5.43;;
55469;SDS011;41334;47.872;16.384;2023-03-01T14:22:35;8.40;;;3.53;;
55469;SDS011;41334;47.872;16.384;2023-03-01T14:25:38;5.95;;;2.63;;
55469;SDS011;41334;47.872;16.384;2023-03-01T14:28:40;10.77;;;3.72;;
55469;SDS011;41334;47.872;16.384;2023-03-01T14:31:43;11.68;;;3.90;;
55469;SDS011;41334;47.872;16.384;2023-03-01T14:34:54;3.67;;;2.15;;
55469;SDS011;41334;47.872;16.384;2023-03-01T14:37:56;5.60;;;3.10;;
55469;SDS011;41334;47.872;16.384;2023-03-01T14:40:59;6.97;;;3.40;;
55469;SDS011;41334;47.872;16.384;2023-03-01T14:44:07;11.27;;;3.10;;
55469;SDS011;41334;47.872;16.384;2023-03-01T14:47:24;10.27;;;3.80;;
55469;SDS011;41334;47.872;16.384;2023-03-01T14:50:27;9.50;;;3.63;;
55469;SDS011;41334;47.872;16.384;2023-03-01T14:53:29;8.60;;;3.30;;
55469;SDS011;41334;47.872;16.384;2023-03-01T14:56:44;5.40;;;3.22;;
55469;SDS011;41334;47.872;16.384;2023-03-01T14:59:46;10.10;;;4.07;;
55469;SDS011;41334;47.872;16.384;2023-03-01T15:02:50;6.20;;;3.90;;
55469;SDS011;41334;47.872;16.384;2023-03-01T15:05:52;9.98;;;3.85;;
55469;SDS011;41334;47.872;16.384;2023-03-01T15:08:55;9.88;;;4.35;;
55469;SDS011;41334;47.872;16.384;2023-03-01T15:11:58;11.77;;;4.60;;
55469;SDS011;41334;47.872;16.384;2023-03-01T15:14:59;8.10;;;3.80;;
55469;SDS011;41334;47.872;16.384;2023-03-01T15:18:06;9.55;;;4.93;;
55469;SDS011;41334;47.872;16.384;2023-03-01T15:21:15;10.98;;;4.78;;
55469;SDS011;41334;47.872;16.384;2023-03-01T15:24:20;10.43;;;5.07;;
55469;SDS011;41334;47.872;16.384;2023-03-01T15:27:24;11.48;;;5.20;;
55469;SDS011;41334;47.872;16.384;2023-03-01T15:30:27;10.60;;;3.70;;
55469;SDS011;41334;47.872;16.384;2023-03-01T15:33:31;10.80;;;4.88;;
55469;SDS011;41334;47.872;16.384;2023-03-01T15:39:42;11.63;;;6.32;;
55469;SDS011;41334;47.872;16.384;2023-03-01T15:42:44;12.15;;;5.75;;
55469;SDS011;41334;47.872;16.384;2023-03-01T15:45:47;11.57;;;5.68;;
55469;SDS011;41334;47.872;16.384;2023-03-01T15:49:01;14.13;;;6.55;;
55469;SDS011;41334;47.872;16.384;2023-03-01T15:52:04;13.25;;;5.53;;
55469;SDS011;41334;47.872;16.384;2023-03-01T15:55:28;16.27;;;6.65;;
55469;SDS011;41334;47.872;16.384;2023-03-01T15:58:32;17.55;;;6.30;;
55469;SDS011;41334;47.872;16.384;2023-03-01T16:01:33;11.65;;;5.88;;
55469;SDS011;41334;47.872;16.384;2023-03-01T16:04:36;11.10;;;5.47;;
55469;SDS011;41334;47.872;16.384;2023-03-01T16:07:38;13.68;;;5.82;;
55469;SDS011;41334;47.872;16.384;2023-03-01T16:10:41;17.02;;;6.32;;
55469;SDS011;41334;47.872;16.384;2023-03-01T16:13:45;14.38;;;5.75;;
55469;SDS011;41334;47.872;16.384;2023-03-01T16:16:47;11.43;;;5.82;;
55469;SDS011;41334;47.872;16.384;2023-03-01T16:19:52;12.75;;;6.10;;
55469;SDS011;41334;47.872;16.384;2023-03-01T16:22:54;16.15;;;6.60;;
55469;SDS011;41334;47.872;16.384;2023-03-01T16:25:58;10.63;;;5.85;;
55469;SDS011;41334;47.872;16.384;2023-03-01T16:29:00;13.18;;;6.35;;
55469;SDS011;41334;47.872;16.384;2023-03-01T16:32:02;11.98;;;6.45;;
55469;SDS011;41334;47.872;16.384;2023-03-01T16:35:04;12.20;;;6.03;;
55469;SDS011;41334;47.872;16.384;2023-03-01T16:38:06;9.75;;;5.75;;
55469;SDS011;41334;47.872;16.384;2023-03-01T16:41:11;11.77;;;6.78;;
55469;SDS011;41334;47.872;16.384;2023-03-01T16:44:14;13.60;;;7.18;;
55469;SDS011;41334;47.872;16.384;2023-03-01T16:47:15;14.55;;;7.30;;
55469;SDS011;41334;47.872;16.384;2023-03-01T16:50:17;16.05;;;7.28;;
55469;SDS011;41334;47.872;16.384;2023-03-01T16:53:19;15.93;;;7.25;;
55469;SDS011;41334;47.872;16.384;2023-03-01T16:56:21;17.05;;;8.35;;
55469;SDS011;41334;47.872;16.384;2023-03-01T16:59:22;19.35;;;8.80;;
55469;SDS011;41334;47.872;16.384;2023-03-01T17:02:24;18.63;;;9.38;;
55469;SDS011;41334;47.872;16.384;2023-03-01T17:05:26;24.63;;;10.85;;
55469;SDS011;41334;47.872;16.384;2023-03-01T17:08:28;23.55;;;11.82;;
55469;SDS011;41334;47.872;16.384;2023-03-01T17:11:29;19.55;;;9.85;;
55469;SDS011;41334;47.872;16.384;2023-03-01T17:14:31;24.25;;;12.80;;
55469;SDS011;41334;47.872;16.384;2023-03-01T17:17:33;18.35;;;10.15;;
55469;SDS011;41334;47.872;16.384;2023-03-01T17:20:36;15.43;;;8.82;;
55469;SDS011;41334;47.872;16.384;2023-03-01T17:23:39;13.40;;;7.40;;
55469;SDS011;41334;47.872;16.384;2023-03-01T17:26:40;14.00;;;6.70;;
55469;SDS011;41334;47.872;16.384;2023-03-01T17:29:42;15.45;;;7.53;;
55469;SDS011;41334;47.872;16.384;2023-03-01T17:32:44;14.65;;;7.38;;
55469;SDS011;41334;47.872;16.384;2023-03-01T17:35:46;15.80;;;7.13;;
55469;SDS011;41334;47.872;16.384;2023-03-01T17:38:48;15.05;;;7.95;;
55469;SDS011;41334;47.872;16.384;2023-03-01T17:41:51;23.23;;;8.35;;
55469;SDS011;41334;47.872;16.384;2023-03-01T17:44:53;20.45;;;8.35;;
55469;SDS011;41334;47.872;16.384;2023-03-01T17:47:55;16.85;;;8.02;;
55469;SDS011;41334;47.872;16.384;2023-03-01T17:50:57;19.25;;;8.02;;
55469;SDS011;41334;47.872;16.384;2023-03-01T17:53:59;15.55;;;6.95;;
55469;SDS011;41334;47.872;16.384;2023-03-01T17:57:00;10.98;;;6.35;;
55469;SDS011;41334;47.872;16.384;2023-03-01T18:00:02;10.48;;;5.65;;
55469;SDS011;41334;47.872;16.384;2023-03-01T18:03:11;16.52;;;7.45;;
55469;SDS011;41334;47.872;16.384;2023-03-01T18:06:17;13.32;;;7.20;;
55469;SDS011;41334;47.872;16.384;2023-03-01T18:09:20;13.85;;;6.25;;
55469;SDS011;41334;47.872;16.384;2023-03-01T18:12:22;17.80;;;6.35;;
55469;SDS011;41334;47.872;16.384;2023-03-01T18:15:24;12.30;;;5.93;;
55469;SDS011;41334;47.872;16.384;2023-03-01T18:18:26;13.48;;;8.27;;
55469;SDS011;41334;47.872;16.384;2023-03-01T18:21:28;12.48;;;6.30;;
55469;SDS011;41334;47.872;16.384;2023-03-01T18:24:31;8.60;;;5.40;;
55469;SDS011;41334;47.872;16.384;2023-03-01T18:27:33;14.25;;;6.88;;
55469;SDS011;41334;47.872;16.384;2023-03-01T18:30:34;8.45;;;4.25;;
55469;SDS011;41334;47.872;16.384;2023-03-01T18:33:36;8.93;;;5.03;;
55469;SDS011;41334;47.872;16.384;2023-03-01T18:36:38;11.23;;;6.13;;
55469;SDS011;41334;47.872;16.384;2023-03-01T18:39:44;15.80;;;7.70;;
55469;SDS011;41334;47.872;16.384;2023-03-01T18:42:46;12.75;;;6.88;;
55469;SDS011;41334;47.872;16.384;2023-03-01T18:45:48;26.67;;;8.15;;
55469;SDS011;41334;47.872;16.384;2023-03-01T18:48:56;25.27;;;10.93;;
55469;SDS011;41334;47.872;16.384;2023-03-01T18:51:57;12.43;;;6.57;;
55469;SDS011;41334;47.872;16.384;2023-03-01T18:54:59;12.00;;;6.03;;
55469;SDS011;41334;47.872;16.384;2023-03-01T18:58:00;14.25;;;7.30;;
55469;SDS011;41334;47.872;16.384;2023-03-01T19:01:03;23.73;;;8.00;;
55469;SDS011;41334;47.872;16.384;2023-03-01T19:04:09;9.00;;;4.47;;
55469;SDS011;41334;47.872;16.384;2023-03-01T19:07:11;15.02;;;6.82;;
55469;SDS011;41334;47.872;16.384;2023-03-01T19:10:13;11.23;;;6.15;;
55469;SDS011;41334;47.872;16.384;2023-03-01T19:13:14;14.30;;;6.07;;
55469;SDS011;41334;47.872;16.384;2023-03-01T19:16:17;18.70;;;7.32;;
55469;SDS011;41334;47.872;16.384;2023-03-01T19:19:19;12.77;;;6.28;;
55469;SDS011;41334;47.872;16.384;2023-03-01T19:22:21;20.92;;;7.30;;